Time;durP1;ratioP1;P1;durP2;ratioP2;P2;SDS_P1;SDS_P2;PMS_P1;PMS_P2;Temp;Humidity;BMP_temperature;BMP_pressure;BME280_temperature;BME280_humidity;BME280_pressure;Samples;Min_cycle;Max_cycle;Signal;HPM_P1;HPM_P2
2022/08/12 00:44:21;;;;;;;3.75;2.10;;;23.30;42.30;;;;;;4950403;28;20023;-80
2022/08/12 00:46:50;;;;;;;2.33;2.10;;;23.30;42.40;;;;;;4949855;28;20035;-80
2022/08/12 00:49:19;;;;;;;2.85;2.20;;;23.20;42.70;;;;;;4961759;28;20475;-80
2022/08/12 00:52:06;;;;;;;3.67;2.30;;;23.20;42.60;;;;;;4966275;28;20038;-80
2022/08/12 00:54:36;;;;;;;3.00;2.17;;;23.20;42.70;;;;;;4934949;28;20606;-80
2022/08/12 00:57:16;;;;;;;3.88;2.30;;;23.10;42.90;;;;;;4964724;28;20097;-80
2022/08/12 00:59:57;;;;;;;2.80;2.30;;;23.10;43.10;;;;;;4955337;28;20031;-80
2022/08/12 01:02:28;;;;;;;2.97;2.20;;;23.10;44.00;;;;;;4937603;28;20037;-78
2022/08/12 01:13:27;;;;;;;2.25;2.00;;;22.90;43.40;;;;;;4943698;28;20037;-78
2022/08/12 01:15:55;;;;;;;2.92;2.30;;;22.90;43.30;;;;;;4943239;28;20031;-78
2022/08/12 01:18:23;;;;;;;2.60;1.92;;;22.80;43.50;;;;;;4964269;28;20019;-78
2022/08/12 01:21:08;;;;;;;2.30;2.00;;;22.80;43.60;;;;;;4950122;28;20041;-78
2022/08/12 01:23:45;;;;;;;3.13;2.10;;;22.70;44.80;;;;;;4969502;28;20242;-78
2022/08/12 01:26:17;;;;;;;4.38;2.33;;;22.70;44.50;;;;;;4932615;28;20042;-78
2022/08/12 01:28:45;;;;;;;2.75;2.20;;;22.60;44.50;;;;;;4954220;28;20033;-78
2022/08/12 01:31:11;;;;;;;3.17;2.30;;;22.60;44.10;;;;;;4938291;28;20026;-78
2022/08/12 01:33:49;;;;;;;2.47;2.10;;;22.50;44.20;;;;;;4958577;28;20034;-78
2022/08/12 01:36:17;;;;;;;3.58;2.10;;;22.40;45.10;;;;;;4964308;28;20488;-78
2022/08/12 01:38:46;;;;;;;3.55;2.40;;;22.40;44.60;;;;;;4956169;28;20121;-79
2022/08/12 01:41:16;;;;;;;2.55;2.03;;;22.30;44.70;;;;;;4942146;28;20026;-78
2022/08/12 01:43:44;;;;;;;2.90;2.15;;;22.30;45.20;;;;;;4956213;28;20059;-78
2022/08/12 01:46:54;;;;;;;2.43;2.20;;;22.20;44.90;;;;;;4954854;28;20019;-79
2022/08/12 01:49:40;;;;;;;2.40;2.17;;;22.10;46.50;;;;;;4962967;28;20030;-79
2022/08/12 01:52:06;;;;;;;2.72;2.30;;;22.10;46.20;;;;;;4940564;28;20035;-79
2022/08/12 01:54:44;;;;;;;3.15;2.28;;;22.10;45.20;;;;;;4952997;28;20030;-78
2022/08/12 01:57:23;;;;;;;2.75;2.35;;;22.00;46.60;;;;;;4960145;28;20026;-79
2022/08/12 02:00:05;;;;;;;2.50;2.13;;;22.00;46.40;;;;;;4964751;28;20034;-79
2022/08/12 02:02:51;;;;;;;2.60;2.17;;;21.90;47.10;;;;;;4949550;28;20126;-78
2022/08/12 02:11:42;;;;;;;2.90;2.30;;;21.80;46.80;;;;;;4938561;28;20247;-79
2022/08/12 02:14:12;;;;;;;2.90;2.20;;;21.70;46.80;;;;;;4952490;28;20057;-79
2022/08/12 02:16:41;;;;;;;3.47;2.40;;;21.70;46.90;;;;;;4949541;28;20031;-79
2022/08/12 02:19:33;;;;;;;2.80;2.13;;;21.60;46.80;;;;;;4958915;28;20388;-79
2022/08/12 02:22:20;;;;;;;2.85;2.30;;;21.60;47.80;;;;;;4954632;28;20041;-79
2022/08/12 02:24:49;;;;;;;2.60;2.20;;;21.50;47.80;;;;;;4961792;28;20039;-79
2022/08/12 02:27:18;;;;;;;3.37;2.13;;;21.40;46.80;;;;;;4939164;28;20058;-79
2022/08/12 02:29:44;;;;;;;3.00;2.30;;;21.40;47.00;;;;;;4966581;28;20027;-79
2022/08/12 02:32:11;;;;;;;3.25;2.50;;;21.40;46.90;;;;;;4953288;28;20057;-79
2022/08/12 02:34:37;;;;;;;2.75;2.42;;;21.30;47.10;;;;;;4956745;28;20027;-79
2022/08/12 02:37:04;;;;;;;3.33;2.47;;;21.30;47.30;;;;;;4965708;28;20023;-79
2022/08/12 02:39:32;;;;;;;3.23;2.40;;;21.20;47.30;;;;;;4963048;28;20141;-79
2022/08/12 02:42:03;;;;;;;3.35;2.20;;;21.20;47.60;;;;;;4944743;28;20035;-79
2022/08/12 02:44:36;;;;;;;4.07;2.30;;;21.10;48.00;;;;;;4978979;28;20338;-79
2022/08/12 02:47:05;;;;;;;3.65;2.50;;;21.10;47.90;;;;;;4946449;28;20022;-79
2022/08/12 02:49:45;;;;;;;4.78;2.40;;;21.00;48.70;;;;;;4955381;28;20201;-78
2022/08/12 02:52:14;;;;;;;6.60;2.60;;;21.00;49.30;;;;;;4955514;28;20042;-79
2022/08/12 02:54:44;;;;;;;2.78;2.17;;;20.90;48.10;;;;;;4968326;28;20073;-79
2022/08/12 02:57:13;;;;;;;3.47;2.47;;;20.90;48.60;;;;;;4943328;28;20411;-78
2022/08/12 02:59:40;;;;;;;3.50;2.63;;;20.90;48.60;;;;;;4964457;28;20732;-79
2022/08/12 03:02:11;;;;;;;4.35;2.40;;;20.80;49.10;;;;;;4946368;28;20550;-79
2022/08/12 03:04:45;;;;;;;2.90;2.37;;;20.80;49.10;;;;;;4954840;28;20723;-78
2022/08/12 03:07:19;;;;;;;3.42;2.53;;;20.70;49.10;;;;;;4960281;28;20021;-79
2022/08/12 03:09:50;;;;;;;3.83;2.42;;;20.70;50.10;;;;;;4964952;28;20510;-78
2022/08/12 03:12:17;;;;;;;4.45;2.55;;;20.60;49.20;;;;;;4940179;28;20503;-79
2022/08/12 03:14:43;;;;;;;3.30;2.45;;;20.60;48.80;;;;;;4965695;28;20522;-79
2022/08/12 03:17:18;;;;;;;3.07;2.30;;;20.60;49.00;;;;;;4951232;28;20116;-79
2022/08/12 03:19:44;;;;;;;3.45;2.55;;;20.50;49.50;;;;;;4956234;28;20062;-79
2022/08/12 03:22:14;;;;;;;3.25;2.25;;;20.50;49.10;;;;;;4967710;28;20027;-79
2022/08/12 03:24:44;;;;;;;3.40;2.60;;;20.40;49.30;;;;;;4953136;28;22005;-79
2022/08/12 03:27:12;;;;;;;3.28;2.60;;;20.40;49.90;;;;;;4964177;28;20392;-79
2022/08/12 03:29:40;;;;;;;3.47;2.42;;;20.30;49.60;;;;;;4957709;28;20049;-79
2022/08/12 03:32:07;;;;;;;3.63;2.50;;;20.30;49.60;;;;;;4955483;28;20158;-79
2022/08/12 03:34:34;;;;;;;3.95;2.50;;;20.20;49.80;;;;;;4958072;28;20241;-79
2022/08/12 03:37:02;;;;;;;3.93;2.70;;;20.20;50.30;;;;;;4960809;28;20030;-79
2022/08/12 03:39:40;;;;;;;2.80;2.50;;;20.10;50.00;;;;;;4958793;28;20027;-79
2022/08/12 03:42:38;;;;;;;3.83;2.60;;;20.10;50.30;;;;;;4962226;28;20023;-78
2022/08/12 04:01:58;;;;;;;3.22;2.30;;;19.80;50.60;;;;;;4959899;28;20561;-79
2022/08/12 04:04:25;;;;;;;2.90;2.20;;;19.70;50.60;;;;;;4959942;28;20057;-79
2022/08/12 04:06:52;;;;;;;2.80;2.10;;;19.70;50.80;;;;;;4938483;28;20054;-78
2022/08/12 04:09:20;;;;;;;3.28;2.50;;;19.70;51.00;;;;;;4954551;28;20065;-79
2022/08/12 04:14:31;;;;;;;2.83;2.50;;;19.60;51.10;;;;;;4967019;28;20725;-79
2022/08/12 04:16:57;;;;;;;2.90;2.60;;;19.60;51.20;;;;;;4943317;28;20019;-79
2022/08/12 04:19:24;;;;;;;3.55;2.35;;;19.50;51.30;;;;;;4969977;28;20030;-79
2022/08/12 04:21:51;;;;;;;4.63;2.80;;;19.50;51.40;;;;;;4952768;28;20054;-79
2022/08/12 04:24:17;;;;;;;3.00;2.45;;;19.40;51.50;;;;;;4980436;28;20019;-79
2022/08/12 04:26:43;;;;;;;2.73;2.43;;;19.40;51.70;;;;;;4961242;28;20111;-79
2022/08/12 04:29:09;;;;;;;5.00;2.67;;;19.40;51.70;;;;;;4958483;28;20280;-79
2022/08/12 04:31:42;;;;;;;4.43;2.67;;;19.40;51.80;;;;;;4941834;28;20165;-79
2022/08/12 04:34:10;;;;;;;4.57;2.60;;;19.30;52.80;;;;;;4965217;28;20468;-79
2022/08/12 04:36:38;;;;;;;3.95;2.80;;;19.30;52.10;;;;;;4966221;28;20019;-79
2022/08/12 04:39:06;;;;;;;2.90;2.47;;;19.20;52.20;;;;;;4950749;28;20286;-79
2022/08/12 04:41:34;;;;;;;4.22;2.63;;;19.20;52.30;;;;;;4942364;28;20033;-79
2022/08/12 04:44:00;;;;;;;3.90;2.67;;;19.20;52.30;;;;;;4958550;28;20310;-79
2022/08/12 04:46:26;;;;;;;3.73;2.60;;;19.20;52.40;;;;;;4946183;28;20046;-79
2022/08/12 04:48:52;;;;;;;3.33;2.60;;;19.10;52.50;;;;;;4958005;28;20113;-78
2022/08/12 04:51:19;;;;;;;3.47;2.78;;;19.10;52.70;;;;;;4964691;28;20326;-79
2022/08/12 04:53:46;;;;;;;2.78;2.33;;;19.10;52.70;;;;;;4949759;28;20041;-79
2022/08/12 04:56:12;;;;;;;3.53;2.75;;;19.10;52.90;;;;;;4958011;28;20133;-79
2022/08/12 04:58:39;;;;;;;4.23;2.60;;;19.10;52.90;;;;;;4963768;28;20035;-79
2022/08/12 05:01:06;;;;;;;4.38;2.80;;;19.00;52.90;;;;;;4956869;28;20545;-79
2022/08/12 05:03:34;;;;;;;3.95;2.70;;;19.10;53.10;;;;;;4950662;28;20229;-79
2022/08/12 05:06:01;;;;;;;3.50;2.70;;;19.00;53.20;;;;;;4952978;28;20034;-78
2022/08/12 05:08:27;;;;;;;3.35;2.80;;;19.10;53.30;;;;;;4933613;28;20063;-79
2022/08/12 05:10:53;;;;;;;3.30;2.60;;;19.10;53.30;;;;;;4968368;28;20122;-79
2022/08/12 05:13:21;;;;;;;4.15;2.70;;;19.10;53.40;;;;;;4938711;28;20423;-79
2022/08/12 05:15:48;;;;;;;3.90;2.70;;;19.10;53.60;;;;;;4966526;28;20400;-79
2022/08/12 05:18:15;;;;;;;3.70;2.70;;;19.00;53.50;;;;;;4935699;28;20490;-79
2022/08/12 05:20:42;;;;;;;3.23;2.47;;;19.10;53.60;;;;;;4967349;28;20571;-79
2022/08/12 05:23:12;;;;;;;3.97;2.80;;;19.10;53.70;;;;;;4952006;28;20027;-79
2022/08/12 05:25:38;;;;;;;4.57;2.70;;;19.10;54.20;;;;;;4960479;28;20054;-79
2022/08/12 05:28:04;;;;;;;3.10;2.60;;;19.10;53.90;;;;;;4959693;28;20026;-79
2022/08/12 05:30:32;;;;;;;4.18;2.67;;;19.10;53.90;;;;;;4947679;28;20053;-79
2022/08/12 05:33:05;;;;;;;3.80;2.90;;;19.10;54.00;;;;;;4944636;28;20388;-79
2022/08/12 05:35:38;;;;;;;4.25;2.70;;;19.20;54.00;;;;;;4950694;28;20132;-79
2022/08/12 05:40:54;;;;;;;3.90;3.05;;;19.20;54.70;;;;;;4969393;28;20379;-79
2022/08/12 05:43:20;;;;;;;4.50;3.10;;;19.30;54.20;;;;;;4968320;28;20094;-79
2022/08/12 05:45:46;;;;;;;4.57;3.10;;;19.30;54.40;;;;;;4944558;28;20046;-79
2022/08/12 05:48:13;;;;;;;3.63;2.97;;;19.40;54.50;;;;;;4931110;28;20129;-79
2022/08/12 05:50:39;;;;;;;3.97;3.10;;;19.40;54.60;;;;;;4964367;28;20066;-79
2022/08/12 05:53:06;;;;;;;3.92;3.00;;;19.50;54.80;;;;;;4932331;28;20985;-79
2022/08/12 05:55:33;;;;;;;3.83;2.97;;;19.50;54.80;;;;;;4959333;28;20522;-79
2022/08/12 05:58:01;;;;;;;4.47;2.87;;;19.60;55.00;;;;;;4957119;28;20299;-81
2022/08/12 06:00:30;;;;;;;3.80;3.00;;;19.60;54.90;;;;;;4960672;28;20091;-79
2022/08/12 06:02:59;;;;;;;3.80;3.00;;;19.70;55.00;;;;;;4949030;28;20023;-78
2022/08/12 06:05:26;;;;;;;3.75;2.90;;;19.80;55.20;;;;;;4954044;28;20020;-79
2022/08/12 06:07:58;;;;;;;4.57;3.20;;;19.80;55.00;;;;;;4954638;28;20023;-79
2022/08/12 06:10:24;;;;;;;4.07;3.00;;;19.90;55.70;;;;;;4944489;28;20046;-79
2022/08/12 06:12:50;;;;;;;4.30;3.20;;;20.00;55.10;;;;;;4967073;28;20468;-79
2022/08/12 06:15:16;;;;;;;5.20;3.47;;;20.10;55.10;;;;;;4958254;28;20581;-78
2022/08/12 06:17:43;;;;;;;5.32;3.28;;;20.20;55.10;;;;;;4955706;28;20046;-79
2022/08/12 06:20:12;;;;;;;5.70;3.38;;;20.20;55.10;;;;;;4934351;28;20039;-79
2022/08/12 06:22:39;;;;;;;5.22;3.05;;;20.40;55.20;;;;;;4962434;28;20479;-79
2022/08/12 06:25:05;;;;;;;5.15;3.40;;;20.50;55.30;;;;;;4943766;28;20435;-78
2022/08/12 06:27:33;;;;;;;4.60;3.37;;;20.50;55.30;;;;;;4954188;28;20528;-79
2022/08/12 06:30:01;;;;;;;5.78;3.63;;;20.70;55.40;;;;;;4959935;28;20705;-79
2022/08/12 06:32:27;;;;;;;5.05;3.47;;;20.70;55.30;;;;;;4950338;28;20019;-79
2022/08/12 06:34:55;;;;;;;8.52;3.35;;;20.80;55.30;;;;;;4939451;28;20471;-79
2022/08/12 06:37:22;;;;;;;5.13;3.33;;;20.90;55.40;;;;;;4964469;28;20019;-79
2022/08/12 06:39:47;;;;;;;4.97;3.13;;;21.00;55.40;;;;;;4961782;28;20090;-79
2022/08/12 06:44:57;;;;;;;5.10;3.15;;;21.30;55.50;;;;;;4950430;28;20034;-79
2022/08/12 06:47:23;;;;;;;4.33;3.20;;;21.40;55.40;;;;;;4955291;28;20027;-79
2022/08/12 06:49:51;;;;;;;3.77;2.70;;;21.50;55.40;;;;;;4934760;28;20598;-79
2022/08/12 06:52:21;;;;;;;4.17;3.07;;;21.60;55.40;;;;;;4943269;28;20301;-79
2022/08/12 06:54:47;;;;;;;4.72;3.25;;;21.70;55.50;;;;;;4945135;28;20037;-79
2022/08/12 06:57:13;;;;;;;5.85;3.20;;;21.90;55.60;;;;;;4939851;28;20035;-79
2022/08/12 06:59:39;;;;;;;3.63;2.90;;;22.00;55.40;;;;;;4955562;28;20074;-79
2022/08/12 07:02:07;;;;;;;4.40;3.30;;;22.10;55.20;;;;;;4938443;28;20466;-79
2022/08/12 07:04:37;;;;;;;4.72;2.95;;;22.30;55.20;;;;;;4960101;28;20023;-79
2022/08/12 07:07:06;;;;;;;4.65;3.22;;;22.40;55.20;;;;;;4937407;28;20222;-79
2022/08/12 07:09:32;;;;;;;5.27;3.17;;;22.60;55.30;;;;;;4969126;28;20026;-79
2022/08/12 07:11:58;;;;;;;4.82;3.13;;;22.70;55.20;;;;;;4944687;28;20420;-79
2022/08/12 07:14:24;;;;;;;3.90;3.30;;;22.80;55.10;;;;;;4950339;28;20452;-79
2022/08/12 07:16:52;;;;;;;3.67;2.95;;;23.00;55.10;;;;;;4951903;28;20034;-79
2022/08/12 07:19:21;;;;;;;3.63;3.15;;;23.10;55.00;;;;;;4955147;28;20450;-78
2022/08/12 07:21:48;;;;;;;5.40;3.30;;;23.20;55.30;;;;;;4926103;28;20045;-79
2022/08/12 07:24:14;;;;;;;4.65;3.10;;;23.40;54.70;;;;;;4962782;28;20042;-80
2022/08/12 07:26:40;;;;;;;5.53;3.20;;;23.60;54.40;;;;;;4959840;28;20063;-79
2022/08/12 07:29:09;;;;;;;3.42;2.80;;;23.70;54.20;;;;;;4943832;28;20036;-79
2022/08/12 07:31:36;;;;;;;3.63;3.10;;;23.90;54.00;;;;;;4958540;28;20025;-79
2022/08/12 07:34:03;;;;;;;5.17;3.20;;;24.00;53.90;;;;;;4942034;28;20126;-79
2022/08/12 07:36:29;;;;;;;5.50;3.17;;;24.20;53.70;;;;;;4954201;28;20225;-79
2022/08/12 07:38:55;;;;;;;7.55;3.20;;;24.30;53.40;;;;;;4937631;28;20115;-79
2022/08/12 07:41:24;;;;;;;5.35;3.03;;;24.50;53.20;;;;;;4978572;28;20048;-80
2022/08/12 07:43:56;;;;;;;4.03;2.88;;;24.60;52.90;;;;;;4942876;28;20031;-79
2022/08/12 07:46:26;;;;;;;4.77;2.83;;;24.80;52.70;;;;;;4935470;28;20419;-79
2022/08/12 07:48:55;;;;;;;3.70;2.92;;;24.90;52.80;;;;;;4958165;28;20054;-79
2022/08/12 07:51:23;;;;;;;5.13;2.42;;;25.10;52.70;;;;;;4935183;28;20446;-80
2022/08/12 07:53:49;;;;;;;4.00;2.90;;;25.30;52.60;;;;;;4941041;28;20034;-78
2022/08/12 07:56:17;;;;;;;4.90;2.55;;;25.40;52.50;;;;;;4948297;28;20041;-79
2022/08/12 07:58:43;;;;;;;3.80;2.40;;;25.60;52.60;;;;;;4961021;28;20023;-80
2022/08/12 08:01:11;;;;;;;3.88;2.90;;;25.80;52.60;;;;;;4948113;28;20042;-79
2022/08/12 08:04:54;;;;;;;3.30;2.28;;;26.00;52.60;;;;;;4960716;28;20026;-80
2022/08/12 08:06:24;;;;;;;4.07;2.50;;;26.40;52.50;;;;;;4963748;28;20057;-80
2022/08/12 08:08:49;;;;;;;4.47;2.80;;;26.70;52.20;;;;;;4928496;28;20039;-80
2022/08/12 08:14:02;;;;;;;2.60;2.28;;;27.30;51.60;;;;;;4966972;28;20107;-79
2022/08/12 08:16:28;;;;;;;3.30;2.50;;;27.70;51.60;;;;;;4948012;28;20050;-80
2022/08/12 08:18:58;;;;;;;3.42;2.42;;;28.00;51.20;;;;;;4964255;28;20031;-80
2022/08/12 08:21:32;;;;;;;3.42;2.30;;;28.40;50.80;;;;;;4964180;28;20038;-80
2022/08/12 08:24:13;;;;;;;3.33;2.20;;;28.70;50.50;;;;;;4937995;28;20025;-80
2022/08/12 08:26:39;;;;;;;4.32;2.30;;;29.10;50.60;;;;;;4947253;28;20031;-79
2022/08/12 08:29:07;;;;;;;3.47;2.27;;;29.50;51.20;;;;;;4963181;28;20637;-80
2022/08/12 08:31:34;;;;;;;3.17;2.30;;;29.90;51.10;;;;;;4938855;28;20062;-79
2022/08/12 08:34:00;;;;;;;4.20;2.60;;;30.40;50.80;;;;;;4966764;28;20031;-80
2022/08/12 08:36:27;;;;;;;3.50;2.50;;;30.90;50.40;;;;;;4956625;28;20037;-80
2022/08/12 08:38:53;;;;;;;3.45;2.65;;;31.40;49.90;;;;;;4929930;28;20034;-80
2022/08/12 08:44:03;;;;;;;2.60;2.40;;;32.50;49.00;;;;;;4961147;28;20034;-81
2022/08/12 08:46:31;;;;;;;2.95;2.58;;;33.10;48.20;;;;;;4945476;28;21436;-79
2022/08/12 08:49:00;;;;;;;4.93;2.65;;;33.60;47.10;;;;;;4965888;28;20015;-80
2022/08/12 08:51:26;;;;;;;2.63;2.42;;;34.10;46.20;;;;;;4943194;28;20494;-79
2022/08/12 08:53:52;;;;;;;3.20;2.83;;;34.60;45.70;;;;;;4956432;28;20479;-80
2022/08/12 08:56:18;;;;;;;4.70;2.75;;;35.10;44.60;;;;;;4931140;28;20535;-80
2022/08/12 08:58:44;;;;;;;2.60;2.40;;;35.60;43.80;;;;;;4965831;28;20559;-80
2022/08/12 09:01:14;;;;;;;3.63;3.08;;;36.00;43.00;;;;;;4950216;28;20131;-81
2022/08/12 09:03:40;;;;;;;3.07;2.83;;;36.40;42.00;;;;;;4962613;28;20542;-81
2022/08/12 09:06:05;;;;;;;2.75;2.55;;;36.80;41.20;;;;;;4933255;28;20065;-81
2022/08/12 09:08:31;;;;;;;3.85;3.08;;;37.20;40.40;;;;;;4965447;28;20069;-81
2022/08/12 09:13:26;;;;;;;2.93;2.67;;;37.60;39.70;;;;;;4940631;28;20259;-80
2022/08/12 09:13:42;;;;;;;4.22;2.90;;;37.90;38.80;;;;;;4972707;28;20050;-80
2022/08/12 09:16:08;;;;;;;4.40;2.80;;;38.30;38.00;;;;;;4943507;28;20131;-81
2022/08/12 09:18:34;;;;;;;2.65;2.45;;;38.60;37.30;;;;;;4943611;28;20019;-81
2022/08/12 09:21:02;;;;;;;3.47;2.63;;;38.80;36.60;;;;;;4916570;28;20515;-81
2022/08/12 09:23:28;;;;;;;3.42;3.05;;;39.00;36.10;;;;;;4956640;28;20107;-80
2022/08/12 09:25:54;;;;;;;3.03;2.83;;;39.30;35.60;;;;;;4942039;28;20042;-81
2022/08/12 09:28:27;;;;;;;3.28;2.97;;;39.50;35.00;;;;;;4951580;28;20077;-80
2022/08/12 09:30:56;;;;;;;2.87;2.40;;;39.70;33.30;;;;;;4960835;28;20062;-81
2022/08/12 09:33:29;;;;;;;3.92;3.35;;;40.00;33.60;;;;;;4925702;28;20054;-79
2022/08/12 09:35:56;;;;;;;2.88;2.67;;;40.10;32.80;;;;;;4942797;28;20357;-81
2022/08/12 09:38:22;;;;;;;3.35;3.13;;;40.30;32.40;;;;;;4937780;28;20065;-81
2022/08/12 09:40:48;;;;;;;4.57;2.88;;;40.50;32.00;;;;;;4934913;28;20035;-81
2022/08/12 09:46:01;;;;;;;2.75;2.55;;;40.80;31.10;;;;;;4952575;28;20109;-81
2022/08/12 09:48:28;;;;;;;3.63;3.33;;;41.00;30.80;;;;;;4931754;28;20015;-80
2022/08/12 09:50:54;;;;;;;4.20;3.90;;;41.20;30.10;;;;;;4947795;28;20113;-81
2022/08/12 09:53:25;;;;;;;3.87;3.47;;;41.30;29.90;;;;;;4961357;28;20138;-81
2022/08/12 09:55:53;;;;;;;3.83;3.50;;;41.40;29.60;;;;;;4965005;28;20026;-81
2022/08/12 09:58:29;;;;;;;3.63;3.33;;;41.50;29.40;;;;;;4925393;28;20031;-80
2022/08/12 10:01:00;;;;;;;3.13;2.78;;;41.70;29.70;;;;;;4964184;28;20035;-80
2022/08/12 10:03:35;;;;;;;2.87;2.67;;;41.80;28.60;;;;;;4944596;28;20038;-81
2022/08/12 10:06:05;;;;;;;5.00;2.72;;;42.00;27.70;;;;;;4937038;28;20046;-80
2022/08/12 10:08:33;;;;;;;3.63;3.33;;;42.10;28.30;;;;;;4942632;28;20567;-81
2022/08/12 10:13:47;;;;;;;3.25;2.97;;;42.30;27.60;;;;;;4949930;28;20450;-82
2022/08/12 10:16:16;;;;;;;2.80;2.60;;;42.50;27.50;;;;;;4951948;28;20415;-80
2022/08/12 10:18:45;;;;;;;3.60;2.78;;;42.50;26.90;;;;;;4945309;28;23704;-80
2022/08/12 10:21:21;;;;;;;3.83;3.53;;;42.60;26.70;;;;;;4959230;28;20050;-81
2022/08/12 10:23:48;;;;;;;4.35;3.20;;;42.80;26.70;;;;;;4914329;28;21004;-81
2022/08/12 10:31:45;;;;;;;3.58;2.90;;;43.00;25.90;;;;;;4961519;28;20053;-80
2022/08/12 10:34:15;;;;;;;3.75;3.03;;;43.10;25.70;;;;;;4949334;28;20034;-79
2022/08/12 10:36:42;;;;;;;4.82;2.60;;;43.00;25.00;;;;;;4929850;28;20146;-80
2022/08/12 10:39:10;;;;;;;4.55;3.17;;;43.00;24.80;;;;;;4957716;28;20031;-81
2022/08/12 10:44:21;;;;;;;3.42;2.75;;;43.00;24.80;;;;;;4938827;28;20058;-80
2022/08/12 10:46:51;;;;;;;3.33;3.03;;;43.00;24.30;;;;;;4962236;28;20035;-80
2022/08/12 10:49:18;;;;;;;3.45;3.00;;;43.00;24.10;;;;;;4942433;28;20485;-80
2022/08/12 10:51:45;;;;;;;3.00;2.80;;;43.00;24.00;;;;;;4941659;28;20244;-81
2022/08/12 10:54:13;;;;;;;3.67;2.50;;;43.00;24.00;;;;;;4937034;28;20412;-80
2022/08/12 10:56:39;;;;;;;2.70;2.50;;;43.00;23.90;;;;;;4957409;28;20551;-80
2022/08/12 10:59:05;;;;;;;3.45;3.13;;;43.00;23.90;;;;;;4919729;28;20518;-80
2022/08/12 11:01:32;;;;;;;2.90;2.70;;;43.10;23.70;;;;;;4940588;28;20133;-80
2022/08/12 11:04:01;;;;;;;3.75;3.45;;;43.20;23.70;;;;;;4926429;28;20031;-80
2022/08/12 11:06:28;;;;;;;3.83;3.53;;;43.20;23.40;;;;;;4924583;28;20054;-80
2022/08/12 11:08:55;;;;;;;3.13;2.92;;;43.40;23.60;;;;;;4968711;28;20022;-80
2022/08/12 11:11:23;;;;;;;3.33;2.90;;;43.40;23.40;;;;;;4961193;28;20431;-80
2022/08/12 11:13:49;;;;;;;3.45;3.25;;;43.60;23.20;;;;;;4916648;28;20539;-81
2022/08/12 11:16:16;;;;;;;3.90;3.60;;;43.70;23.20;;;;;;4952122;28;20039;-80
2022/08/12 11:18:42;;;;;;;3.30;3.00;;;43.80;22.80;;;;;;4938694;28;20673;-80
2022/08/12 11:21:08;;;;;;;3.72;3.20;;;43.90;22.60;;;;;;4928755;28;20102;-80
2022/08/12 11:23:34;;;;;;;3.67;3.38;;;43.90;22.40;;;;;;4940742;28;20023;-79
2022/08/12 11:26:00;;;;;;;3.30;3.10;;;43.90;22.40;;;;;;4962049;28;20136;-80
2022/08/12 11:28:26;;;;;;;3.67;3.37;;;43.90;22.20;;;;;;4961141;28;20023;-80
2022/08/12 11:30:52;;;;;;;3.85;3.55;;;43.90;22.40;;;;;;4929266;28;20292;-80
2022/08/12 11:33:18;;;;;;;3.80;3.50;;;44.00;22.30;;;;;;4960096;28;20464;-79
2022/08/12 11:35:44;;;;;;;3.15;2.88;;;44.00;22.20;;;;;;4945426;28;20057;-80
2022/08/12 11:38:10;;;;;;;3.97;3.10;;;44.00;22.30;;;;;;4941006;28;20046;-80
2022/08/12 11:40:36;;;;;;;3.03;2.73;;;44.20;22.20;;;;;;4945098;28;20089;-79
2022/08/12 11:43:02;;;;;;;4.03;3.55;;;44.30;22.20;;;;;;4955616;28;20110;-79
2022/08/12 11:45:29;;;;;;;3.35;3.05;;;44.30;21.90;;;;;;4951264;28;20027;-80
2022/08/12 11:47:58;;;;;;;4.03;3.00;;;44.30;21.90;;;;;;4948645;28;20113;-80
2022/08/12 11:50:24;;;;;;;3.40;3.10;;;44.30;21.70;;;;;;4955584;28;20031;-81
2022/08/12 11:52:50;;;;;;;3.00;2.80;;;44.40;21.60;;;;;;4941724;28;20082;-80
2022/08/12 11:55:17;;;;;;;4.00;3.58;;;44.40;21.50;;;;;;4977942;28;20218;-79
2022/08/12 11:57:50;;;;;;;3.08;2.78;;;44.40;21.40;;;;;;4946524;28;20026;-80
2022/08/12 12:00:16;;;;;;;3.60;3.22;;;44.40;21.00;;;;;;4945328;28;20320;-80
2022/08/12 12:02:42;;;;;;;2.90;2.70;;;44.40;21.20;;;;;;4936491;28;20035;-80
2022/08/12 12:05:08;;;;;;;3.92;3.47;;;44.40;21.20;;;;;;4962397;28;20038;-79
2022/08/12 12:07:39;;;;;;;2.70;2.38;;;44.40;21.00;;;;;;4932976;28;20395;-79
2022/08/12 12:10:05;;;;;;;3.13;2.83;;;44.40;20.70;;;;;;4929332;28;20194;-80
2022/08/12 12:12:31;;;;;;;3.43;2.87;;;44.30;21.50;;;;;;4958986;28;20019;-79
2022/08/12 12:14:57;;;;;;;3.90;3.60;;;44.30;20.80;;;;;;4950085;28;20038;-80
2022/08/12 12:17:27;;;;;;;3.00;2.80;;;44.30;20.70;;;;;;4936164;28;20038;-80
2022/08/12 12:19:53;;;;;;;4.37;2.70;;;44.30;20.60;;;;;;4961605;28;20026;-79
2022/08/12 12:22:20;;;;;;;3.50;2.88;;;44.30;20.50;;;;;;4951603;28;20411;-79
2022/08/12 12:24:46;;;;;;;3.17;2.95;;;44.30;20.40;;;;;;4948247;28;20440;-79
2022/08/12 12:27:12;;;;;;;2.88;2.67;;;44.20;21.00;;;;;;4953847;28;20508;-78
2022/08/12 12:29:38;;;;;;;3.43;3.03;;;44.30;20.60;;;;;;4945007;28;20059;-79
2022/08/12 12:32:04;;;;;;;2.80;2.60;;;44.30;20.50;;;;;;4933082;28;20286;-78
2022/08/12 12:34:30;;;;;;;3.28;2.97;;;44.40;20.70;;;;;;4948780;28;20176;-79
2022/08/12 12:36:55;;;;;;;2.55;2.35;;;44.40;20.40;;;;;;4962361;28;20046;-79
2022/08/12 12:39:21;;;;;;;3.80;3.50;;;44.50;20.30;;;;;;4950090;28;20038;-79
2022/08/12 12:41:47;;;;;;;2.63;2.23;;;44.50;20.30;;;;;;4955792;28;20074;-79
2022/08/12 12:44:12;;;;;;;3.13;2.92;;;44.50;20.40;;;;;;4964219;28;20034;-80
2022/08/12 12:46:38;;;;;;;3.30;3.00;;;44.60;20.30;;;;;;4962383;28;20034;-78
2022/08/12 12:49:04;;;;;;;3.37;3.10;;;44.70;20.30;;;;;;4939499;28;20042;-79
2022/08/12 12:51:29;;;;;;;3.33;3.03;;;44.80;20.10;;;;;;4960290;28;20027;-79
2022/08/12 12:53:56;;;;;;;3.30;2.75;;;44.80;20.10;;;;;;4954974;28;20034;-79
2022/08/12 12:56:23;;;;;;;3.72;3.35;;;44.80;20.00;;;;;;4941759;28;20034;-78
2022/08/12 12:58:50;;;;;;;3.03;2.83;;;44.90;19.80;;;;;;4961963;28;20039;-79
2022/08/12 13:01:20;;;;;;;2.70;2.50;;;44.90;19.70;;;;;;4965644;28;20030;-79
2022/08/12 13:03:47;;;;;;;3.50;3.20;;;44.90;19.70;;;;;;4937892;28;20026;-80
2022/08/12 13:06:13;;;;;;;3.35;3.08;;;44.90;19.60;;;;;;4943405;28;20011;-81
2022/08/12 13:08:39;;;;;;;2.90;2.70;;;44.90;19.50;;;;;;4962602;28;20100;-80
2022/08/12 13:11:06;;;;;;;2.72;2.53;;;44.90;19.50;;;;;;4930481;28;20046;-79
2022/08/12 13:13:35;;;;;;;2.92;2.72;;;44.90;19.50;;;;;;4978827;28;20070;-79
2022/08/12 13:16:02;;;;;;;2.83;2.63;;;44.90;19.70;;;;;;4938766;28;20197;-79
2022/08/12 13:18:35;;;;;;;3.47;3.28;;;44.90;19.70;;;;;;4920604;28;20114;-80
2022/08/12 13:21:02;;;;;;;2.83;2.63;;;44.90;19.70;;;;;;4947302;28;20337;-80
2022/08/12 13:23:27;;;;;;;3.40;2.92;;;45.00;19.70;;;;;;4957146;28;20022;-80
2022/08/12 13:25:54;;;;;;;4.10;2.70;;;45.00;19.70;;;;;;4947413;28;20767;-80
2022/08/12 13:28:29;;;;;;;3.00;2.70;;;45.00;19.60;;;;;;4944144;28;20089;-80
2022/08/12 13:30:56;;;;;;;2.60;2.40;;;44.90;18.90;;;;;;4942151;28;20547;-80
2022/08/12 13:33:25;;;;;;;3.08;2.70;;;44.90;19.20;;;;;;4933985;28;20495;-81
2022/08/12 13:35:57;;;;;;;2.78;2.58;;;44.80;19.20;;;;;;4949211;28;20023;-79
2022/08/12 13:38:33;;;;;;;2.70;2.50;;;44.80;19.00;;;;;;4931684;28;20231;-80
2022/08/12 13:41:00;;;;;;;3.17;2.87;;;44.80;18.80;;;;;;4954609;28;20094;-80
2022/08/12 13:43:25;;;;;;;2.55;2.35;;;44.70;19.20;;;;;;4940298;28;20129;-81
2022/08/12 13:45:51;;;;;;;3.33;2.70;;;44.60;18.90;;;;;;4931410;28;20030;-81
2022/08/12 13:48:17;;;;;;;2.77;2.57;;;44.50;19.00;;;;;;4940447;28;20511;-81
2022/08/12 13:50:42;;;;;;;2.67;2.47;;;44.40;19.10;;;;;;4949214;28;20518;-81
2022/08/12 13:53:14;;;;;;;2.80;2.60;;;44.30;19.10;;;;;;4962453;28;20110;-79
2022/08/12 13:55:44;;;;;;;3.03;2.83;;;44.20;18.90;;;;;;4960293;28;20431;-81
2022/08/12 13:58:11;;;;;;;2.50;2.28;;;44.20;18.90;;;;;;4947696;28;20030;-80
2022/08/12 14:00:38;;;;;;;2.67;2.47;;;44.10;19.00;;;;;;4934151;28;20696;-80
2022/08/12 14:03:04;;;;;;;3.17;2.45;;;43.90;18.80;;;;;;4954814;28;20652;-80
2022/08/12 14:05:32;;;;;;;2.20;2.00;;;43.80;18.90;;;;;;4927925;28;20027;-79
2022/08/12 14:08:07;;;;;;;2.25;2.05;;;43.60;18.90;;;;;;4952984;28;20034;-80
2022/08/12 14:10:35;;;;;;;2.30;1.95;;;43.50;18.80;;;;;;4946618;28;20911;-77
2022/08/12 14:13:28;;;;;;;3.20;2.38;;;43.40;19.00;;;;;;4963355;28;20966;-80
2022/08/12 14:15:57;;;;;;;2.15;2.00;;;43.20;19.10;;;;;;4938720;28;20022;-80
2022/08/12 14:18:29;;;;;;;2.77;2.57;;;43.20;19.30;;;;;;4949384;28;20057;-80
2022/08/12 14:21:00;;;;;;;2.53;2.22;;;43.20;18.90;;;;;;4923282;28;20521;-80
2022/08/12 14:23:28;;;;;;;3.65;2.38;;;43.10;19.10;;;;;;4959407;28;20244;-80
2022/08/12 14:25:58;;;;;;;2.55;2.35;;;43.10;19.00;;;;;;4958770;28;20500;-79
2022/08/12 14:28:26;;;;;;;2.03;1.83;;;43.00;19.00;;;;;;4937726;28;20803;-80
2022/08/12 14:31:01;;;;;;;2.53;2.33;;;42.90;19.00;;;;;;4933846;28;20511;-80
2022/08/12 14:33:29;;;;;;;2.17;2.00;;;42.90;19.00;;;;;;4947472;28;20034;-80
2022/08/12 14:35:57;;;;;;;2.40;2.17;;;42.80;19.00;;;;;;4923507;28;20495;-79
2022/08/12 14:38:25;;;;;;;2.20;2.00;;;42.70;18.90;;;;;;4951968;28;20125;-80